Aeroporto :
LOGIN :

Iscrizione | Disclaimer

   EN    FR    IT 

 










Sommario :    VFR   VFR Marginale   IFR   IFR Intensivo   IFR Molto Intensivo
Visibilità : 
Base nubi : 
>= 8 km
>= 3000ft
5 / 8 km
1000 / 3000 ft
1500m / 5 km
500 / 1000 ft
800 / 1500m
200 / 500 ft
< 800m
< 200 ft
Simboli :   Temporali  Nebbia  Neve Forte  Precipitazioni Forti  Vento > 20 kt
SIGMETs :   Varie  Temporali  Ghiacco  Turbolenza  Onda orograficha  Ceneri Vulcaniche






- Altitudine del aeroporto : 297 ft


EGVP - Middle Wallop

ULTIMO METAR :
  • 130850Z 29018G30KT 9999 FEW033 06/01 Q0981 RMK BLU

METARs OBSOLETI :
  • 130821Z 28023G33KT 9999 FEW025 06/01 Q0980 NOSIG RMK BLU BLU
  • 130750Z 28020KT 9999 FEW025 06/01 Q0979 NOSIG RMK BLU BLU
  • 130650Z 28020G32KT 9999 FEW025 06/02 Q0978 RMK BLU
  • 130550Z 28020KT 9999 SCT025 06/03 Q0976 RMK BLU

TAF AMD TAF EGVP
Valido dal 13 a 09 ore il 13 a 17 ore UTC


130814Z 1309/1317 27020G30KT 9999 SCT030
PROB40
TEMPO 1309/1311 27028G40KT
ATIS : +44 1980 674 142



MetMap, La meteo Aeronautica in un colpo d'occhio ! - Copyright ORBIFLY Dicembre 2007 - Disclaimer

ORBIFLY MET'MAP TEAM :

Programmazione e sviluppo : Alexandra Zaïnal
Concezione : Baudouin d'Aumeries
Aiuto per la programmazione : Marc-Olivier Méhu
Supporto tecnico e logistico : Manuel Goepfert
Aiuto per la traduzione : Arnaldo La Scala

Contatto : metmap@orbifly.com




FONTI E CREDITI :

   NOAA